sensor_id;sensor_type;location;lat;lon;timestamp;pressure;altitude;pressure_sealevel;temperature;humidity
57250;BME280;43102;52.014;-0.680;2023-06-14T00:00:00;100895;;;17.07;47.07
57250;BME280;43102;52.014;-0.680;2023-06-14T00:01:00;100895;;;17.07;47.07
57250;BME280;43102;52.014;-0.680;2023-06-14T00:02:00;100895;;;17.07;47.07
57250;BME280;43102;52.014;-0.680;2023-06-14T00:03:00;100895;;;17.07;47.07
57250;BME280;43102;52.014;-0.680;2023-06-14T00:04:00;100895;;;17.07;47.07
57250;BME280;43102;52.014;-0.680;2023-06-14T00:05:00;100897;;;16.89;47.33
57250;BME280;43102;52.014;-0.680;2023-06-14T00:06:00;100897;;;16.89;47.33
57250;BME280;43102;52.014;-0.680;2023-06-14T00:07:00;100897;;;16.89;47.33
57250;BME280;43102;52.014;-0.680;2023-06-14T00:08:00;100897;;;16.89;47.33
57250;BME280;43102;52.014;-0.680;2023-06-14T00:09:00;100897;;;16.89;47.33
57250;BME280;43102;52.014;-0.680;2023-06-14T00:10:00;100905;;;16.75;47.88
57250;BME280;43102;52.014;-0.680;2023-06-14T00:11:00;100905;;;16.75;47.88
57250;BME280;43102;52.014;-0.680;2023-06-14T00:12:00;100905;;;16.75;47.88
57250;BME280;43102;52.014;-0.680;2023-06-14T00:13:01;100905;;;16.75;47.88
57250;BME280;43102;52.014;-0.680;2023-06-14T00:14:00;100905;;;16.75;47.88
57250;BME280;43102;52.014;-0.680;2023-06-14T00:15:00;100906;;;16.68;48.04
57250;BME280;43102;52.014;-0.680;2023-06-14T00:16:00;100906;;;16.68;48.04
57250;BME280;43102;52.014;-0.680;2023-06-14T00:17:00;100906;;;16.68;48.04
57250;BME280;43102;52.014;-0.680;2023-06-14T00:18:00;100906;;;16.68;48.04
57250;BME280;43102;52.014;-0.680;2023-06-14T00:19:00;100906;;;16.68;48.04
57250;BME280;43102;52.014;-0.680;2023-06-14T00:20:00;100902;;;16.48;48.83
57250;BME280;43102;52.014;-0.680;2023-06-14T00:21:00;100902;;;16.48;48.83
57250;BME280;43102;52.014;-0.680;2023-06-14T00:22:00;100902;;;16.48;48.83
57250;BME280;43102;52.014;-0.680;2023-06-14T00:23:00;100902;;;16.48;48.83
57250;BME280;43102;52.014;-0.680;2023-06-14T00:24:00;100902;;;16.48;48.83
57250;BME280;43102;52.014;-0.680;2023-06-14T00:25:00;100912;;;16.39;49.27
57250;BME280;43102;52.014;-0.680;2023-06-14T00:26:00;100912;;;16.39;49.27
57250;BME280;43102;52.014;-0.680;2023-06-14T00:27:00;100912;;;16.39;49.27
57250;BME280;43102;52.014;-0.680;2023-06-14T00:28:00;100912;;;16.39;49.27
57250;BME280;43102;52.014;-0.680;2023-06-14T00:29:00;100912;;;16.39;49.27
57250;BME280;43102;52.014;-0.680;2023-06-14T00:30:00;100918;;;16.29;49.50
57250;BME280;43102;52.014;-0.680;2023-06-14T00:31:00;100918;;;16.29;49.50
57250;BME280;43102;52.014;-0.680;2023-06-14T00:32:00;100918;;;16.29;49.50
57250;BME280;43102;52.014;-0.680;2023-06-14T00:33:00;100918;;;16.29;49.50
57250;BME280;43102;52.014;-0.680;2023-06-14T00:34:00;100918;;;16.29;49.50
57250;BME280;43102;52.014;-0.680;2023-06-14T00:35:00;100916;;;16.23;49.87
57250;BME280;43102;52.014;-0.680;2023-06-14T00:36:00;100916;;;16.23;49.87
57250;BME280;43102;52.014;-0.680;2023-06-14T00:37:00;100916;;;16.23;49.87
57250;BME280;43102;52.014;-0.680;2023-06-14T00:38:00;100916;;;16.23;49.87
57250;BME280;43102;52.014;-0.680;2023-06-14T00:39:00;100916;;;16.23;49.87
57250;BME280;43102;52.014;-0.680;2023-06-14T00:40:00;100921;;;16.05;50.51
57250;BME280;43102;52.014;-0.680;2023-06-14T00:41:00;100921;;;16.05;50.51
57250;BME280;43102;52.014;-0.680;2023-06-14T00:42:00;100921;;;16.05;50.51
57250;BME280;43102;52.014;-0.680;2023-06-14T00:43:00;100921;;;16.05;50.51
57250;BME280;43102;52.014;-0.680;2023-06-14T00:44:00;100921;;;16.05;50.51
57250;BME280;43102;52.014;-0.680;2023-06-14T00:45:00;100918;;;15.82;51.41
57250;BME280;43102;52.014;-0.680;2023-06-14T00:46:00;100918;;;15.82;51.41
57250;BME280;43102;52.014;-0.680;2023-06-14T00:47:00;100918;;;15.82;51.41
57250;BME280;43102;52.014;-0.680;2023-06-14T00:48:00;100918;;;15.82;51.41
57250;BME280;43102;52.014;-0.680;2023-06-14T00:49:00;100918;;;15.82;51.41
57250;BME280;43102;52.014;-0.680;2023-06-14T00:50:00;100922;;;15.83;51.78
57250;BME280;43102;52.014;-0.680;2023-06-14T00:51:00;100922;;;15.83;51.78
57250;BME280;43102;52.014;-0.680;2023-06-14T00:52:00;100922;;;15.83;51.78
57250;BME280;43102;52.014;-0.680;2023-06-14T00:53:00;100922;;;15.83;51.78
57250;BME280;43102;52.014;-0.680;2023-06-14T00:54:00;100922;;;15.83;51.78
57250;BME280;43102;52.014;-0.680;2023-06-14T00:55:00;100926;;;15.90;51.72
57250;BME280;43102;52.014;-0.680;2023-06-14T00:56:00;100926;;;15.90;51.72
57250;BME280;43102;52.014;-0.680;2023-06-14T00:57:00;100926;;;15.90;51.72
57250;BME280;43102;52.014;-0.680;2023-06-14T00:58:00;100926;;;15.90;51.72
57250;BME280;43102;52.014;-0.680;2023-06-14T00:59:00;100926;;;15.90;51.72
57250;BME280;43102;52.014;-0.680;2023-06-14T01:00:00;100925;;;15.87;51.79
57250;BME280;43102;52.014;-0.680;2023-06-14T01:01:00;100925;;;15.87;51.79
57250;BME280;43102;52.014;-0.680;2023-06-14T01:02:00;100925;;;15.87;51.79
57250;BME280;43102;52.014;-0.680;2023-06-14T01:03:00;100925;;;15.87;51.79
57250;BME280;43102;52.014;-0.680;2023-06-14T01:04:00;100925;;;15.87;51.79
57250;BME280;43102;52.014;-0.680;2023-06-14T01:05:00;100927;;;15.82;51.99
57250;BME280;43102;52.014;-0.680;2023-06-14T01:07:02;100927;;;15.82;51.99
57250;BME280;43102;52.014;-0.680;2023-06-14T01:11:02;100920;;;15.82;51.97
57250;BME280;43102;52.014;-0.680;2023-06-14T01:12:11;100920;;;15.82;51.97
57250;BME280;43102;52.014;-0.680;2023-06-14T01:14:00;100920;;;15.82;51.97
57250;BME280;43102;52.014;-0.680;2023-06-14T01:15:00;100920;;;15.88;51.92
57250;BME280;43102;52.014;-0.680;2023-06-14T01:16:00;100920;;;15.88;51.92
57250;BME280;43102;52.014;-0.680;2023-06-14T01:17:00;100920;;;15.88;51.92
57250;BME280;43102;52.014;-0.680;2023-06-14T01:18:00;100920;;;15.88;51.92
57250;BME280;43102;52.014;-0.680;2023-06-14T01:19:00;100920;;;15.88;51.92
57250;BME280;43102;52.014;-0.680;2023-06-14T01:20:01;100920;;;15.78;52.10
57250;BME280;43102;52.014;-0.680;2023-06-14T01:21:00;100920;;;15.78;52.10
57250;BME280;43102;52.014;-0.680;2023-06-14T01:22:00;100920;;;15.78;52.10
57250;BME280;43102;52.014;-0.680;2023-06-14T01:23:00;100920;;;15.78;52.10
57250;BME280;43102;52.014;-0.680;2023-06-14T01:24:00;100920;;;15.78;52.10
57250;BME280;43102;52.014;-0.680;2023-06-14T01:25:00;100914;;;15.59;52.49
57250;BME280;43102;52.014;-0.680;2023-06-14T01:26:00;100914;;;15.59;52.49
57250;BME280;43102;52.014;-0.680;2023-06-14T01:27:00;100914;;;15.59;52.49
57250;BME280;43102;52.014;-0.680;2023-06-14T01:28:01;100914;;;15.59;52.49
57250;BME280;43102;52.014;-0.680;2023-06-14T01:29:00;100914;;;15.59;52.49
57250;BME280;43102;52.014;-0.680;2023-06-14T01:30:00;100914;;;15.45;52.96
57250;BME280;43102;52.014;-0.680;2023-06-14T01:31:01;100914;;;15.45;52.96
57250;BME280;43102;52.014;-0.680;2023-06-14T01:32:00;100914;;;15.45;52.96
57250;BME280;43102;52.014;-0.680;2023-06-14T01:33:00;100914;;;15.45;52.96
57250;BME280;43102;52.014;-0.680;2023-06-14T01:34:00;100914;;;15.45;52.96
57250;BME280;43102;52.014;-0.680;2023-06-14T01:35:00;100915;;;15.38;53.34
57250;BME280;43102;52.014;-0.680;2023-06-14T01:36:00;100915;;;15.38;53.34
57250;BME280;43102;52.014;-0.680;2023-06-14T01:37:00;100915;;;15.38;53.34
57250;BME280;43102;52.014;-0.680;2023-06-14T01:38:00;100915;;;15.38;53.34
57250;BME280;43102;52.014;-0.680;2023-06-14T01:39:00;100915;;;15.38;53.34
57250;BME280;43102;52.014;-0.680;2023-06-14T01:40:00;100914;;;15.26;54.01
57250;BME280;43102;52.014;-0.680;2023-06-14T01:41:00;100914;;;15.26;54.01
57250;BME280;43102;52.014;-0.680;2023-06-14T01:42:00;100914;;;15.26;54.01
57250;BME280;43102;52.014;-0.680;2023-06-14T01:43:00;100914;;;15.26;54.01
57250;BME280;43102;52.014;-0.680;2023-06-14T01:44:00;100914;;;15.26;54.01
57250;BME280;43102;52.014;-0.680;2023-06-14T01:45:00;100915;;;15.41;53.91
57250;BME280;43102;52.014;-0.680;2023-06-14T01:46:00;100915;;;15.41;53.91
57250;BME280;43102;52.014;-0.680;2023-06-14T01:47:00;100915;;;15.41;53.91
57250;BME280;43102;52.014;-0.680;2023-06-14T01:48:00;100915;;;15.41;53.91
57250;BME280;43102;52.014;-0.680;2023-06-14T01:49:00;100915;;;15.41;53.91
57250;BME280;43102;52.014;-0.680;2023-06-14T01:50:00;100912;;;15.35;54.16
57250;BME280;43102;52.014;-0.680;2023-06-14T01:51:00;100912;;;15.35;54.16
57250;BME280;43102;52.014;-0.680;2023-06-14T01:52:00;100912;;;15.35;54.16
57250;BME280;43102;52.014;-0.680;2023-06-14T01:53:00;100912;;;15.35;54.16
57250;BME280;43102;52.014;-0.680;2023-06-14T01:54:00;100912;;;15.35;54.16
57250;BME280;43102;52.014;-0.680;2023-06-14T01:55:00;100909;;;15.39;54.22
57250;BME280;43102;52.014;-0.680;2023-06-14T01:56:00;100909;;;15.39;54.22
57250;BME280;43102;52.014;-0.680;2023-06-14T01:57:00;100909;;;15.39;54.22
57250;BME280;43102;52.014;-0.680;2023-06-14T01:58:00;100909;;;15.39;54.22
57250;BME280;43102;52.014;-0.680;2023-06-14T01:59:00;100909;;;15.39;54.22
57250;BME280;43102;52.014;-0.680;2023-06-14T02:00:00;100907;;;15.25;54.44
57250;BME280;43102;52.014;-0.680;2023-06-14T02:01:00;100907;;;15.25;54.44
57250;BME280;43102;52.014;-0.680;2023-06-14T02:02:01;100907;;;15.25;54.44
57250;BME280;43102;52.014;-0.680;2023-06-14T02:03:00;100907;;;15.25;54.44
57250;BME280;43102;52.014;-0.680;2023-06-14T02:04:00;100907;;;15.25;54.44
57250;BME280;43102;52.014;-0.680;2023-06-14T02:05:00;100899;;;15.06;55.08
57250;BME280;43102;52.014;-0.680;2023-06-14T02:06:00;100899;;;15.06;55.08
57250;BME280;43102;52.014;-0.680;2023-06-14T02:07:00;100899;;;15.06;55.08
57250;BME280;43102;52.014;-0.680;2023-06-14T02:08:00;100899;;;15.06;55.08
57250;BME280;43102;52.014;-0.680;2023-06-14T02:09:00;100899;;;15.06;55.08
57250;BME280;43102;52.014;-0.680;2023-06-14T02:10:00;100903;;;15.11;54.98
57250;BME280;43102;52.014;-0.680;2023-06-14T02:11:00;100903;;;15.11;54.98
57250;BME280;43102;52.014;-0.680;2023-06-14T02:12:00;100903;;;15.11;54.98
57250;BME280;43102;52.014;-0.680;2023-06-14T02:13:00;100903;;;15.11;54.98
57250;BME280;43102;52.014;-0.680;2023-06-14T02:14:00;100903;;;15.11;54.98
57250;BME280;43102;52.014;-0.680;2023-06-14T02:15:00;100907;;;15.21;54.75
57250;BME280;43102;52.014;-0.680;2023-06-14T02:16:00;100907;;;15.21;54.75
57250;BME280;43102;52.014;-0.680;2023-06-14T02:17:00;100907;;;15.21;54.75
57250;BME280;43102;52.014;-0.680;2023-06-14T02:18:01;100907;;;15.21;54.75
57250;BME280;43102;52.014;-0.680;2023-06-14T02:19:00;100907;;;15.21;54.75
57250;BME280;43102;52.014;-0.680;2023-06-14T02:20:00;100904;;;15.24;54.69
57250;BME280;43102;52.014;-0.680;2023-06-14T02:21:00;100904;;;15.24;54.69
57250;BME280;43102;52.014;-0.680;2023-06-14T02:22:00;100904;;;15.24;54.69
57250;BME280;43102;52.014;-0.680;2023-06-14T02:23:00;100904;;;15.24;54.69
57250;BME280;43102;52.014;-0.680;2023-06-14T02:24:00;100904;;;15.24;54.69
57250;BME280;43102;52.014;-0.680;2023-06-14T02:25:00;100902;;;15.10;54.88
57250;BME280;43102;52.014;-0.680;2023-06-14T02:26:00;100902;;;15.10;54.88
57250;BME280;43102;52.014;-0.680;2023-06-14T02:27:00;100902;;;15.10;54.88
57250;BME280;43102;52.014;-0.680;2023-06-14T02:28:00;100902;;;15.10;54.88
57250;BME280;43102;52.014;-0.680;2023-06-14T02:29:00;100902;;;15.10;54.88
57250;BME280;43102;52.014;-0.680;2023-06-14T02:30:00;100901;;;15.04;54.83
57250;BME280;43102;52.014;-0.680;2023-06-14T02:31:00;100901;;;15.04;54.83
57250;BME280;43102;52.014;-0.680;2023-06-14T02:32:00;100901;;;15.04;54.83
57250;BME280;43102;52.014;-0.680;2023-06-14T02:33:00;100901;;;15.04;54.83
57250;BME280;43102;52.014;-0.680;2023-06-14T02:34:00;100901;;;15.04;54.83
57250;BME280;43102;52.014;-0.680;2023-06-14T02:35:00;100898;;;14.85;55.70
57250;BME280;43102;52.014;-0.680;2023-06-14T02:36:00;100898;;;14.85;55.70
57250;BME280;43102;52.014;-0.680;2023-06-14T02:37:00;100898;;;14.85;55.70
57250;BME280;43102;52.014;-0.680;2023-06-14T02:38:00;100898;;;14.85;55.70
57250;BME280;43102;52.014;-0.680;2023-06-14T02:39:00;100898;;;14.85;55.70
57250;BME280;43102;52.014;-0.680;2023-06-14T02:40:00;100895;;;14.70;56.17
57250;BME280;43102;52.014;-0.680;2023-06-14T02:41:00;100895;;;14.70;56.17
57250;BME280;43102;52.014;-0.680;2023-06-14T02:42:00;100895;;;14.70;56.17
57250;BME280;43102;52.014;-0.680;2023-06-14T02:43:00;100895;;;14.70;56.17
57250;BME280;43102;52.014;-0.680;2023-06-14T02:44:00;100895;;;14.70;56.17
57250;BME280;43102;52.014;-0.680;2023-06-14T02:45:00;100888;;;14.64;56.70
57250;BME280;43102;52.014;-0.680;2023-06-14T02:46:00;100888;;;14.64;56.70
57250;BME280;43102;52.014;-0.680;2023-06-14T02:47:00;100888;;;14.64;56.70
57250;BME280;43102;52.014;-0.680;2023-06-14T02:48:00;100888;;;14.64;56.70
57250;BME280;43102;52.014;-0.680;2023-06-14T02:49:00;100888;;;14.64;56.70
57250;BME280;43102;52.014;-0.680;2023-06-14T02:50:00;100880;;;14.63;56.94
57250;BME280;43102;52.014;-0.680;2023-06-14T02:51:00;100880;;;14.63;56.94
57250;BME280;43102;52.014;-0.680;2023-06-14T02:52:00;100880;;;14.63;56.94
57250;BME280;43102;52.014;-0.680;2023-06-14T02:53:00;100880;;;14.63;56.94
57250;BME280;43102;52.014;-0.680;2023-06-14T02:54:00;100880;;;14.63;56.94
57250;BME280;43102;52.014;-0.680;2023-06-14T02:55:00;100882;;;14.55;57.05
57250;BME280;43102;52.014;-0.680;2023-06-14T02:56:00;100882;;;14.55;57.05
57250;BME280;43102;52.014;-0.680;2023-06-14T02:57:00;100882;;;14.55;57.05
57250;BME280;43102;52.014;-0.680;2023-06-14T02:58:00;100882;;;14.55;57.05
57250;BME280;43102;52.014;-0.680;2023-06-14T02:59:00;100882;;;14.55;57.05
57250;BME280;43102;52.014;-0.680;2023-06-14T03:00:00;100881;;;14.62;56.95
57250;BME280;43102;52.014;-0.680;2023-06-14T03:01:00;100881;;;14.62;56.95
57250;BME280;43102;52.014;-0.680;2023-06-14T03:02:00;100881;;;14.62;56.95
57250;BME280;43102;52.014;-0.680;2023-06-14T03:03:00;100881;;;14.62;56.95
57250;BME280;43102;52.014;-0.680;2023-06-14T03:04:01;100881;;;14.62;56.95
57250;BME280;43102;52.014;-0.680;2023-06-14T03:05:00;100882;;;14.60;56.74
57250;BME280;43102;52.014;-0.680;2023-06-14T03:06:00;100882;;;14.60;56.74
57250;BME280;43102;52.014;-0.680;2023-06-14T03:07:00;100882;;;14.60;56.74
57250;BME280;43102;52.014;-0.680;2023-06-14T03:08:00;100882;;;14.60;56.74
57250;BME280;43102;52.014;-0.680;2023-06-14T03:09:00;100882;;;14.60;56.74
57250;BME280;43102;52.014;-0.680;2023-06-14T03:10:00;100886;;;14.65;56.80
57250;BME280;43102;52.014;-0.680;2023-06-14T03:11:00;100886;;;14.65;56.80
57250;BME280;43102;52.014;-0.680;2023-06-14T03:12:00;100886;;;14.65;56.80
57250;BME280;43102;52.014;-0.680;2023-06-14T03:13:00;100886;;;14.65;56.80
57250;BME280;43102;52.014;-0.680;2023-06-14T03:14:00;100886;;;14.65;56.80
57250;BME280;43102;52.014;-0.680;2023-06-14T03:15:00;100882;;;14.35;57.48
57250;BME280;43102;52.014;-0.680;2023-06-14T03:16:00;100882;;;14.35;57.48
57250;BME280;43102;52.014;-0.680;2023-06-14T03:17:00;100882;;;14.35;57.48
57250;BME280;43102;52.014;-0.680;2023-06-14T03:18:00;100882;;;14.35;57.48
57250;BME280;43102;52.014;-0.680;2023-06-14T03:19:00;100882;;;14.35;57.48
57250;BME280;43102;52.014;-0.680;2023-06-14T03:20:00;100875;;;14.16;58.16
57250;BME280;43102;52.014;-0.680;2023-06-14T03:21:00;100875;;;14.16;58.16
57250;BME280;43102;52.014;-0.680;2023-06-14T03:22:00;100875;;;14.16;58.16
57250;BME280;43102;52.014;-0.680;2023-06-14T03:23:00;100875;;;14.16;58.16
57250;BME280;43102;52.014;-0.680;2023-06-14T03:24:00;100875;;;14.16;58.16
57250;BME280;43102;52.014;-0.680;2023-06-14T03:25:00;100877;;;14.09;58.54
57250;BME280;43102;52.014;-0.680;2023-06-14T03:26:00;100877;;;14.09;58.54
57250;BME280;43102;52.014;-0.680;2023-06-14T03:27:00;100877;;;14.09;58.54
57250;BME280;43102;52.014;-0.680;2023-06-14T03:28:00;100877;;;14.09;58.54
57250;BME280;43102;52.014;-0.680;2023-06-14T03:29:00;100877;;;14.09;58.54
57250;BME280;43102;52.014;-0.680;2023-06-14T03:30:00;100879;;;14.19;58.47
57250;BME280;43102;52.014;-0.680;2023-06-14T03:31:00;100879;;;14.19;58.47
57250;BME280;43102;52.014;-0.680;2023-06-14T03:32:01;100879;;;14.19;58.47
57250;BME280;43102;52.014;-0.680;2023-06-14T03:33:00;100879;;;14.19;58.47
57250;BME280;43102;52.014;-0.680;2023-06-14T03:34:00;100879;;;14.19;58.47
57250;BME280;43102;52.014;-0.680;2023-06-14T03:35:00;100880;;;13.65;60.79
57250;BME280;43102;52.014;-0.680;2023-06-14T03:36:01;100880;;;13.65;60.79
57250;BME280;43102;52.014;-0.680;2023-06-14T03:37:00;100880;;;13.65;60.79
57250;BME280;43102;52.014;-0.680;2023-06-14T03:38:00;100880;;;13.65;60.79
57250;BME280;43102;52.014;-0.680;2023-06-14T03:39:00;100880;;;13.65;60.79
57250;BME280;43102;52.014;-0.680;2023-06-14T03:40:00;100878;;;13.46;61.73
57250;BME280;43102;52.014;-0.680;2023-06-14T03:41:00;100878;;;13.46;61.73
57250;BME280;43102;52.014;-0.680;2023-06-14T03:42:00;100878;;;13.46;61.73
57250;BME280;43102;52.014;-0.680;2023-06-14T03:43:00;100878;;;13.46;61.73
57250;BME280;43102;52.014;-0.680;2023-06-14T03:44:00;100878;;;13.46;61.73
57250;BME280;43102;52.014;-0.680;2023-06-14T03:45:00;100876;;;13.44;62.18
57250;BME280;43102;52.014;-0.680;2023-06-14T03:46:00;100876;;;13.44;62.18
57250;BME280;43102;52.014;-0.680;2023-06-14T03:47:00;100876;;;13.44;62.18
57250;BME280;43102;52.014;-0.680;2023-06-14T03:48:00;100876;;;13.44;62.18
57250;BME280;43102;52.014;-0.680;2023-06-14T03:49:00;100876;;;13.44;62.18
57250;BME280;43102;52.014;-0.680;2023-06-14T03:50:00;100878;;;13.47;62.32
57250;BME280;43102;52.014;-0.680;2023-06-14T03:51:00;100878;;;13.47;62.32
57250;BME280;43102;52.014;-0.680;2023-06-14T03:52:00;100878;;;13.47;62.32
57250;BME280;43102;52.014;-0.680;2023-06-14T03:53:00;100878;;;13.47;62.32
57250;BME280;43102;52.014;-0.680;2023-06-14T03:54:00;100878;;;13.47;62.32
57250;BME280;43102;52.014;-0.680;2023-06-14T03:55:00;100882;;;13.40;62.81
57250;BME280;43102;52.014;-0.680;2023-06-14T03:56:00;100882;;;13.40;62.81
57250;BME280;43102;52.014;-0.680;2023-06-14T03:57:00;100882;;;13.40;62.81
57250;BME280;43102;52.014;-0.680;2023-06-14T03:58:00;100882;;;13.40;62.81
57250;BME280;43102;52.014;-0.680;2023-06-14T03:59:00;100882;;;13.40;62.81
57250;BME280;43102;52.014;-0.680;2023-06-14T04:00:00;100886;;;13.27;63.28
57250;BME280;43102;52.014;-0.680;2023-06-14T04:01:00;100886;;;13.27;63.28
57250;BME280;43102;52.014;-0.680;2023-06-14T04:02:00;100886;;;13.27;63.28
57250;BME280;43102;52.014;-0.680;2023-06-14T04:03:00;100886;;;13.27;63.28
57250;BME280;43102;52.014;-0.680;2023-06-14T04:04:00;100886;;;13.27;63.28
57250;BME280;43102;52.014;-0.680;2023-06-14T04:05:00;100884;;;13.26;63.73
57250;BME280;43102;52.014;-0.680;2023-06-14T04:06:00;100884;;;13.26;63.73
57250;BME280;43102;52.014;-0.680;2023-06-14T04:07:00;100884;;;13.26;63.73
57250;BME280;43102;52.014;-0.680;2023-06-14T04:08:00;100884;;;13.26;63.73
57250;BME280;43102;52.014;-0.680;2023-06-14T04:09:00;100884;;;13.26;63.73
57250;BME280;43102;52.014;-0.680;2023-06-14T04:10:00;100885;;;13.21;63.90
57250;BME280;43102;52.014;-0.680;2023-06-14T04:11:00;100885;;;13.21;63.90
57250;BME280;43102;52.014;-0.680;2023-06-14T04:12:00;100885;;;13.21;63.90
57250;BME280;43102;52.014;-0.680;2023-06-14T04:13:00;100885;;;13.21;63.90
57250;BME280;43102;52.014;-0.680;2023-06-14T04:14:01;100885;;;13.21;63.90
57250;BME280;43102;52.014;-0.680;2023-06-14T04:15:00;100889;;;13.16;64.30
57250;BME280;43102;52.014;-0.680;2023-06-14T04:16:00;100889;;;13.16;64.30
57250;BME280;43102;52.014;-0.680;2023-06-14T04:17:00;100889;;;13.16;64.30
57250;BME280;43102;52.014;-0.680;2023-06-14T04:18:00;100889;;;13.16;64.30
57250;BME280;43102;52.014;-0.680;2023-06-14T04:19:00;100889;;;13.16;64.30
57250;BME280;43102;52.014;-0.680;2023-06-14T04:20:00;100886;;;13.09;64.69
57250;BME280;43102;52.014;-0.680;2023-06-14T04:21:00;100886;;;13.09;64.69
57250;BME280;43102;52.014;-0.680;2023-06-14T04:22:00;100886;;;13.09;64.69
57250;BME280;43102;52.014;-0.680;2023-06-14T04:23:16;100886;;;13.09;64.69
57250;BME280;43102;52.014;-0.680;2023-06-14T04:24:00;100886;;;13.09;64.69
57250;BME280;43102;52.014;-0.680;2023-06-14T04:25:00;100895;;;13.16;64.92
57250;BME280;43102;52.014;-0.680;2023-06-14T04:26:00;100895;;;13.16;64.92
57250;BME280;43102;52.014;-0.680;2023-06-14T04:27:00;100895;;;13.16;64.92
57250;BME280;43102;52.014;-0.680;2023-06-14T04:28:00;100895;;;13.16;64.92
57250;BME280;43102;52.014;-0.680;2023-06-14T04:29:00;100895;;;13.16;64.92
57250;BME280;43102;52.014;-0.680;2023-06-14T04:30:00;100893;;;13.19;65.12
57250;BME280;43102;52.014;-0.680;2023-06-14T04:31:00;100893;;;13.19;65.12
57250;BME280;43102;52.014;-0.680;2023-06-14T04:32:00;100893;;;13.19;65.12
57250;BME280;43102;52.014;-0.680;2023-06-14T04:33:00;100893;;;13.19;65.12
57250;BME280;43102;52.014;-0.680;2023-06-14T04:34:00;100893;;;13.19;65.12
57250;BME280;43102;52.014;-0.680;2023-06-14T04:35:00;100891;;;13.22;65.34
57250;BME280;43102;52.014;-0.680;2023-06-14T04:36:00;100891;;;13.22;65.34
57250;BME280;43102;52.014;-0.680;2023-06-14T04:37:00;100891;;;13.22;65.34
57250;BME280;43102;52.014;-0.680;2023-06-14T04:38:00;100891;;;13.22;65.34
57250;BME280;43102;52.014;-0.680;2023-06-14T04:39:00;100891;;;13.22;65.34
57250;BME280;43102;52.014;-0.680;2023-06-14T04:40:00;100893;;;13.26;65.58
57250;BME280;43102;52.014;-0.680;2023-06-14T04:41:00;100893;;;13.26;65.58
57250;BME280;43102;52.014;-0.680;2023-06-14T04:42:00;100893;;;13.26;65.58
57250;BME280;43102;52.014;-0.680;2023-06-14T04:43:00;100893;;;13.26;65.58
57250;BME280;43102;52.014;-0.680;2023-06-14T04:44:00;100893;;;13.26;65.58
57250;BME280;43102;52.014;-0.680;2023-06-14T04:45:00;100891;;;13.35;65.80
57250;BME280;43102;52.014;-0.680;2023-06-14T04:46:00;100891;;;13.35;65.80
57250;BME280;43102;52.014;-0.680;2023-06-14T04:47:00;100891;;;13.35;65.80
57250;BME280;43102;52.014;-0.680;2023-06-14T04:48:00;100891;;;13.35;65.80
57250;BME280;43102;52.014;-0.680;2023-06-14T04:49:00;100891;;;13.35;65.80
57250;BME280;43102;52.014;-0.680;2023-06-14T04:50:00;100896;;;13.46;66.08
57250;BME280;43102;52.014;-0.680;2023-06-14T04:51:00;100896;;;13.46;66.08
57250;BME280;43102;52.014;-0.680;2023-06-14T04:52:00;100896;;;13.46;66.08
57250;BME280;43102;52.014;-0.680;2023-06-14T04:53:00;100896;;;13.46;66.08
57250;BME280;43102;52.014;-0.680;2023-06-14T04:54:00;100896;;;13.46;66.08
57250;BME280;43102;52.014;-0.680;2023-06-14T04:55:00;100900;;;13.51;66.31
57250;BME280;43102;52.014;-0.680;2023-06-14T04:56:00;100900;;;13.51;66.31
57250;BME280;43102;52.014;-0.680;2023-06-14T04:57:00;100900;;;13.51;66.31
57250;BME280;43102;52.014;-0.680;2023-06-14T04:58:00;100900;;;13.51;66.31
57250;BME280;43102;52.014;-0.680;2023-06-14T04:59:00;100900;;;13.51;66.31
57250;BME280;43102;52.014;-0.680;2023-06-14T05:00:00;100894;;;13.61;66.64
57250;BME280;43102;52.014;-0.680;2023-06-14T05:01:00;100894;;;13.61;66.64
57250;BME280;43102;52.014;-0.680;2023-06-14T05:02:00;100894;;;13.61;66.64
57250;BME280;43102;52.014;-0.680;2023-06-14T05:03:00;100894;;;13.61;66.64
57250;BME280;43102;52.014;-0.680;2023-06-14T05:04:00;100894;;;13.61;66.64
57250;BME280;43102;52.014;-0.680;2023-06-14T05:05:00;100900;;;13.69;66.85
57250;BME280;43102;52.014;-0.680;2023-06-14T05:06:00;100900;;;13.69;66.85
57250;BME280;43102;52.014;-0.680;2023-06-14T05:07:00;100900;;;13.69;66.85
57250;BME280;43102;52.014;-0.680;2023-06-14T05:08:00;100900;;;13.69;66.85
57250;BME280;43102;52.014;-0.680;2023-06-14T05:09:00;100900;;;13.69;66.85
57250;BME280;43102;52.014;-0.680;2023-06-14T05:10:00;100897;;;13.93;66.85
57250;BME280;43102;52.014;-0.680;2023-06-14T05:11:00;100897;;;13.93;66.85
57250;BME280;43102;52.014;-0.680;2023-06-14T05:12:00;100897;;;13.93;66.85
57250;BME280;43102;52.014;-0.680;2023-06-14T05:13:00;100897;;;13.93;66.85
57250;BME280;43102;52.014;-0.680;2023-06-14T05:14:00;100897;;;13.93;66.85
57250;BME280;43102;52.014;-0.680;2023-06-14T05:15:00;100895;;;14.21;66.59
57250;BME280;43102;52.014;-0.680;2023-06-14T05:16:00;100895;;;14.21;66.59
57250;BME280;43102;52.014;-0.680;2023-06-14T05:17:00;100895;;;14.21;66.59
57250;BME280;43102;52.014;-0.680;2023-06-14T05:18:00;100895;;;14.21;66.59
57250;BME280;43102;52.014;-0.680;2023-06-14T05:19:00;100895;;;14.21;66.59
57250;BME280;43102;52.014;-0.680;2023-06-14T05:20:00;100898;;;14.42;66.78
57250;BME280;43102;52.014;-0.680;2023-06-14T05:21:00;100898;;;14.42;66.78
57250;BME280;43102;52.014;-0.680;2023-06-14T05:22:00;100898;;;14.42;66.78
57250;BME280;43102;52.014;-0.680;2023-06-14T05:23:00;100898;;;14.42;66.78
57250;BME280;43102;52.014;-0.680;2023-06-14T05:24:00;100898;;;14.42;66.78
57250;BME280;43102;52.014;-0.680;2023-06-14T05:25:00;100904;;;14.93;65.91
57250;BME280;43102;52.014;-0.680;2023-06-14T05:26:00;100904;;;14.93;65.91